Time;durP1;ratioP1;P1;durP2;ratioP2;P2;SDS_P1;SDS_P2;PMS_P1;PMS_P2;Temp;Humidity;BMP_temperature;BMP_pressure;BME280_temperature;BME280_humidity;BME280_pressure;Samples;Min_cycle;Max_cycle;Signal;HPM_P1;HPM_P2
2022/11/20 00:01:28;;;;;;;12.73;7.97;;;;;;;;;;4996400;28;20182;-78
2022/11/20 00:03:54;;;;;;;16.07;9.23;;;;;;;;;;5010758;28;20211;-78
2022/11/20 00:06:20;;;;;;;16.80;9.73;;;;;;;;;;5010911;28;20215;-78
2022/11/20 00:08:45;;;;;;;16.20;8.87;;;;;;;;;;5010820;28;20258;-78
2022/11/20 00:11:15;;;;;;;11.87;8.27;;;;;;;;;;4990825;28;20325;-78
2022/11/20 00:13:40;;;;;;;15.63;9.13;;;;;;;;;;4996034;28;20199;-78
2022/11/20 00:16:07;;;;;;;18.27;9.47;;;;;;;;;;4991600;28;20371;-78
2022/11/20 00:18:33;;;;;;;12.80;8.30;;;;;;;;;;5011180;28;20175;-78
2022/11/20 00:21:10;;;;;;;15.53;8.90;;;;;;;;;;5012962;28;20270;-78
2022/11/20 00:23:35;;;;;;;15.97;8.37;;;;;;;;;;4995160;28;20601;-77
2022/11/20 00:26:01;;;;;;;16.83;9.40;;;;;;;;;;4995305;28;20214;-77
2022/11/20 00:28:26;;;;;;;17.10;8.90;;;;;;;;;;5010038;28;20229;-77
2022/11/20 00:30:51;;;;;;;14.53;8.27;;;;;;;;;;4994569;28;20197;-77
2022/11/20 00:33:17;;;;;;;16.60;8.97;;;;;;;;;;5013745;28;20186;-77
2022/11/20 00:35:42;;;;;;;17.77;9.50;;;;;;;;;;5012963;28;20592;-77
2022/11/20 00:38:07;;;;;;;17.93;9.17;;;;;;;;;;5012808;28;20202;-77
2022/11/20 00:40:32;;;;;;;14.03;8.37;;;;;;;;;;4994617;28;20690;-77
2022/11/20 00:42:57;;;;;;;15.10;9.10;;;;;;;;;;5011778;28;20189;-78
2022/11/20 00:45:22;;;;;;;15.97;8.60;;;;;;;;;;5007257;28;20262;-77
2022/11/20 00:47:48;;;;;;;14.83;8.73;;;;;;;;;;4991970;28;20700;-77
2022/11/20 00:50:13;;;;;;;13.17;8.40;;;;;;;;;;4995199;28;20667;-77
2022/11/20 00:52:38;;;;;;;15.37;8.90;;;;;;;;;;4993087;28;20209;-77
2022/11/20 00:55:04;;;;;;;17.60;9.23;;;;;;;;;;5010378;28;20183;-77
2022/11/20 00:57:29;;;;;;;12.77;8.30;;;;;;;;;;4994651;28;20676;-77
2022/11/20 00:59:54;;;;;;;17.60;8.87;;;;;;;;;;4995103;28;20658;-77
2022/11/20 01:02:19;;;;;;;14.83;8.90;;;;;;;;;;5010443;28;20175;-77
2022/11/20 01:04:45;;;;;;;17.93;9.13;;;;;;;;;;5012364;28;20190;-77
2022/11/20 01:07:10;;;;;;;14.87;8.93;;;;;;;;;;4993957;28;20195;-77
2022/11/20 01:09:35;;;;;;;14.90;8.50;;;;;;;;;;5008518;28;20179;-77
2022/11/20 01:12:00;;;;;;;14.27;8.63;;;;;;;;;;5011529;28;20702;-77
2022/11/20 01:14:26;;;;;;;17.03;9.23;;;;;;;;;;4994774;28;20179;-77
2022/11/20 01:16:51;;;;;;;17.60;9.97;;;;;;;;;;5010753;28;20621;-77
2022/11/20 01:19:19;;;;;;;17.43;9.10;;;;;;;;;;4998225;28;20190;-77
2022/11/20 01:21:45;;;;;;;17.10;9.87;;;;;;;;;;5004935;28;20191;-77
2022/11/20 01:24:11;;;;;;;13.10;8.77;;;;;;;;;;4996839;28;20198;-77
2022/11/20 01:26:38;;;;;;;17.07;7.80;;;;;;;;;;5017162;28;20218;-78
2022/11/20 01:29:03;;;;;;;18.53;9.40;;;;;;;;;;5012610;28;20540;-77
2022/11/20 01:31:30;;;;;;;13.53;8.23;;;;;;;;;;5019445;28;20185;-77
2022/11/20 01:33:56;;;;;;;16.43;9.50;;;;;;;;;;5000660;28;20187;-77
2022/11/20 01:36:22;;;;;;;13.63;9.77;;;;;;;;;;5014603;28;20258;-77
2022/11/20 01:38:47;;;;;;;16.47;8.73;;;;;;;;;;5010491;28;20198;-77
2022/11/20 01:43:20;;;;;;;16.80;9.27;;;;;;;;;;5014937;28;20182;-77
2022/11/20 01:43:59;;;;;;;15.40;8.33;;;;;;;;;;5012400;28;20198;-77
2022/11/20 01:46:24;;;;;;;17.07;9.43;;;;;;;;;;5022050;28;20218;-77
2022/11/20 01:48:54;;;;;;;16.73;9.23;;;;;;;;;;5031903;28;20250;-77
2022/11/20 01:51:21;;;;;;;16.37;9.27;;;;;;;;;;5020961;28;20183;-77
2022/11/20 01:53:47;;;;;;;15.87;9.50;;;;;;;;;;5028508;28;20198;-77
2022/11/20 01:56:13;;;;;;;15.40;10.20;;;;;;;;;;5029376;28;20195;-77
2022/11/20 01:58:40;;;;;;;17.27;10.13;;;;;;;;;;5033169;28;20166;-77
2022/11/20 02:01:06;;;;;;;15.20;10.10;;;;;;;;;;5024741;28;20178;-77
2022/11/20 02:03:31;;;;;;;14.67;8.67;;;;;;;;;;5031685;28;20592;-77
2022/11/20 02:06:12;;;;;;;17.60;9.40;;;;;;;;;;5009940;28;21302;-77
2022/11/20 02:08:37;;;;;;;14.93;9.10;;;;;;;;;;5027926;28;20198;-77
2022/11/20 02:11:02;;;;;;;17.67;9.37;;;;;;;;;;5032378;28;20179;-77
2022/11/20 02:13:43;;;;;;;16.37;10.17;;;;;;;;;;5032851;28;20183;-77
2022/11/20 02:16:10;;;;;;;17.13;9.13;;;;;;;;;;5031646;28;20214;-77
2022/11/20 02:18:35;;;;;;;18.10;9.57;;;;;;;;;;5024550;28;20198;-76
2022/11/20 02:21:06;;;;;;;14.10;8.83;;;;;;;;;;5013984;28;20186;-77
2022/11/20 02:23:32;;;;;;;14.77;10.27;;;;;;;;;;5031862;28;20175;-78
2022/11/20 02:25:58;;;;;;;16.90;9.57;;;;;;;;;;4999055;28;20305;-78
2022/11/20 02:28:23;;;;;;;14.47;9.23;;;;;;;;;;5011440;28;20541;-78
2022/11/20 02:30:49;;;;;;;16.73;9.03;;;;;;;;;;5006906;28;20258;-78
2022/11/20 02:33:14;;;;;;;16.13;9.03;;;;;;;;;;5010447;28;20175;-78
2022/11/20 02:35:40;;;;;;;17.63;8.90;;;;;;;;;;4993637;28;20202;-77
2022/11/20 02:38:05;;;;;;;15.47;9.00;;;;;;;;;;5011549;28;20183;-78
2022/11/20 02:40:30;;;;;;;14.47;8.77;;;;;;;;;;5006970;28;20175;-78
2022/11/20 02:42:56;;;;;;;14.30;8.67;;;;;;;;;;5010932;28;20182;-78
2022/11/20 02:45:22;;;;;;;15.50;8.83;;;;;;;;;;5009554;28;20687;-78
2022/11/20 02:47:47;;;;;;;16.27;9.00;;;;;;;;;;5012310;28;20274;-77
2022/11/20 02:50:13;;;;;;;15.63;8.90;;;;;;;;;;4995858;28;20230;-78
2022/11/20 02:52:38;;;;;;;18.70;9.40;;;;;;;;;;5007109;28;20653;-78
2022/11/20 02:55:03;;;;;;;16.33;8.97;;;;;;;;;;5010934;28;20216;-78
2022/11/20 02:57:28;;;;;;;14.43;8.20;;;;;;;;;;5010883;28;20248;-77
2022/11/20 02:59:54;;;;;;;18.60;10.30;;;;;;;;;;5010515;28;20258;-77
2022/11/20 03:02:19;;;;;;;17.83;9.03;;;;;;;;;;5009319;28;20222;-77
2022/11/20 03:04:44;;;;;;;17.90;9.57;;;;;;;;;;5010879;28;20209;-77
2022/11/20 03:07:09;;;;;;;16.07;9.10;;;;;;;;;;5008322;28;20199;-77
2022/11/20 03:09:34;;;;;;;18.20;9.43;;;;;;;;;;5010673;28;20183;-78
2022/11/20 03:12:00;;;;;;;16.07;8.90;;;;;;;;;;4992812;28;20575;-78
2022/11/20 03:14:25;;;;;;;17.53;9.17;;;;;;;;;;5010924;28;20183;-78
2022/11/20 03:16:50;;;;;;;16.40;10.00;;;;;;;;;;5011145;28;20214;-77
2022/11/20 03:19:15;;;;;;;17.13;9.40;;;;;;;;;;5011001;28;20175;-77
2022/11/20 03:21:40;;;;;;;12.90;8.43;;;;;;;;;;5009974;28;20299;-77
2022/11/20 03:24:06;;;;;;;16.13;8.60;;;;;;;;;;5009441;28;20187;-77
2022/11/20 03:26:31;;;;;;;16.00;8.33;;;;;;;;;;5011511;28;20346;-77
2022/11/20 03:29:00;;;;;;;14.97;9.03;;;;;;;;;;5013915;28;20263;-78
2022/11/20 03:31:27;;;;;;;15.10;8.67;;;;;;;;;;5013486;28;20171;-78
2022/11/20 03:33:52;;;;;;;13.83;8.30;;;;;;;;;;4991750;28;20504;-77
2022/11/20 03:36:18;;;;;;;16.40;8.80;;;;;;;;;;5014151;28;20195;-77
2022/11/20 03:38:43;;;;;;;18.03;9.00;;;;;;;;;;4995524;28;20185;-77
2022/11/20 03:41:09;;;;;;;14.47;8.33;;;;;;;;;;4991508;28;20627;-78
2022/11/20 03:43:35;;;;;;;12.60;7.87;;;;;;;;;;5013637;28;20669;-77
2022/11/20 03:46:00;;;;;;;14.67;7.80;;;;;;;;;;5013696;28;20257;-77
2022/11/20 03:48:25;;;;;;;14.10;8.10;;;;;;;;;;5013062;28;20262;-77
2022/11/20 03:51:06;;;;;;;12.87;7.60;;;;;;;;;;4992861;28;20202;-78
2022/11/20 03:53:31;;;;;;;14.50;8.43;;;;;;;;;;4993097;28;20179;-77
2022/11/20 03:55:56;;;;;;;14.80;8.37;;;;;;;;;;4995520;28;20214;-77
2022/11/20 03:58:21;;;;;;;15.03;8.37;;;;;;;;;;5010381;28;20270;-78
2022/11/20 04:00:46;;;;;;;16.03;8.50;;;;;;;;;;5011810;28;20175;-78
2022/11/20 04:03:12;;;;;;;17.03;8.37;;;;;;;;;;4995541;28;20664;-77
2022/11/20 04:05:37;;;;;;;14.67;8.27;;;;;;;;;;5012323;28;20211;-77
2022/11/20 04:08:02;;;;;;;14.83;8.10;;;;;;;;;;5013207;28;20231;-77
2022/11/20 04:10:27;;;;;;;15.93;8.60;;;;;;;;;;5012953;28;20647;-77
2022/11/20 04:12:52;;;;;;;18.07;9.37;;;;;;;;;;4995174;28;20171;-77
2022/11/20 04:15:18;;;;;;;16.37;9.27;;;;;;;;;;5013169;28;20281;-77
2022/11/20 04:17:43;;;;;;;15.73;8.77;;;;;;;;;;5011970;28;20719;-77
2022/11/20 04:20:08;;;;;;;16.83;9.23;;;;;;;;;;5012182;28;20203;-76
2022/11/20 04:22:33;;;;;;;14.13;8.03;;;;;;;;;;5012124;28;20179;-77
2022/11/20 04:24:58;;;;;;;18.00;9.13;;;;;;;;;;5012890;28;20203;-77
2022/11/20 04:27:24;;;;;;;17.20;8.70;;;;;;;;;;5012642;28;20207;-77
2022/11/20 04:29:49;;;;;;;17.00;9.80;;;;;;;;;;5012960;28;20182;-77
2022/11/20 04:32:14;;;;;;;17.20;8.60;;;;;;;;;;5012296;28;20714;-77
2022/11/20 04:34:39;;;;;;;14.87;8.97;;;;;;;;;;4994204;28;20205;-77
2022/11/20 04:37:05;;;;;;;16.93;9.73;;;;;;;;;;5011836;28;20233;-77
2022/11/20 04:39:30;;;;;;;17.63;9.07;;;;;;;;;;5012780;28;20197;-77
2022/11/20 04:44:39;;;;;;;16.57;9.17;;;;;;;;;;5012436;28;20220;-77
2022/11/20 04:47:04;;;;;;;20.00;9.50;;;;;;;;;;5012542;28;20207;-77
2022/11/20 04:49:31;;;;;;;17.37;9.73;;;;;;;;;;5011358;28;20183;-77
2022/11/20 04:51:56;;;;;;;14.90;8.73;;;;;;;;;;5009734;28;20535;-77
2022/11/20 04:54:21;;;;;;;18.07;8.50;;;;;;;;;;5002259;28;20178;-78
2022/11/20 04:56:50;;;;;;;15.33;9.63;;;;;;;;;;5012529;28;20672;-77
2022/11/20 04:59:15;;;;;;;14.07;8.27;;;;;;;;;;5012530;28;20179;-78
2022/11/20 05:01:40;;;;;;;16.77;9.33;;;;;;;;;;4991866;28;20178;-78
2022/11/20 05:04:06;;;;;;;17.17;8.37;;;;;;;;;;4982702;28;20194;-78
2022/11/20 05:06:31;;;;;;;14.53;9.13;;;;;;;;;;5010089;28;20219;-77
2022/11/20 05:08:56;;;;;;;12.77;8.00;;;;;;;;;;4992435;28;20179;-77
2022/11/20 05:11:22;;;;;;;17.07;8.97;;;;;;;;;;5009409;28;20255;-77
2022/11/20 05:13:48;;;;;;;14.30;8.17;;;;;;;;;;4992587;28;20277;-77
2022/11/20 05:16:14;;;;;;;17.60;8.47;;;;;;;;;;5011210;28;20278;-77
2022/11/20 05:18:40;;;;;;;15.97;9.33;;;;;;;;;;5013328;28;20202;-77
2022/11/20 05:21:06;;;;;;;19.97;9.17;;;;;;;;;;5010805;28;20210;-77
2022/11/20 05:23:31;;;;;;;13.93;8.73;;;;;;;;;;4994564;28;20710;-77
2022/11/20 05:25:57;;;;;;;15.63;8.57;;;;;;;;;;5010425;28;20215;-77
2022/11/20 05:28:22;;;;;;;17.83;9.97;;;;;;;;;;4994037;28;20185;-77
2022/11/20 05:30:48;;;;;;;15.17;7.77;;;;;;;;;;5010082;28;20664;-78
2022/11/20 05:33:13;;;;;;;17.40;8.80;;;;;;;;;;5011692;28;20171;-77
2022/11/20 05:35:39;;;;;;;13.97;8.37;;;;;;;;;;4993724;28;20182;-77
2022/11/20 05:38:04;;;;;;;15.97;9.13;;;;;;;;;;5011881;28;20307;-78
2022/11/20 05:40:29;;;;;;;16.60;9.57;;;;;;;;;;4993884;28;20266;-77
2022/11/20 05:42:54;;;;;;;15.23;9.00;;;;;;;;;;5002419;28;20175;-77
2022/11/20 05:45:19;;;;;;;17.70;9.70;;;;;;;;;;5010300;28;20430;-77
2022/11/20 05:47:45;;;;;;;15.17;9.03;;;;;;;;;;5010689;28;20623;-77
2022/11/20 05:50:10;;;;;;;18.87;9.77;;;;;;;;;;4993691;28;20186;-77
2022/11/20 05:52:35;;;;;;;17.17;9.73;;;;;;;;;;5006054;28;20176;-77
2022/11/20 05:55:00;;;;;;;15.37;9.03;;;;;;;;;;4988593;28;20213;-77
2022/11/20 05:57:25;;;;;;;16.63;9.43;;;;;;;;;;5008814;28;20217;-77
2022/11/20 05:59:51;;;;;;;16.00;8.53;;;;;;;;;;5001763;28;20180;-77
2022/11/20 06:02:16;;;;;;;15.90;9.63;;;;;;;;;;5010753;28;20182;-77
2022/11/20 06:04:41;;;;;;;15.40;9.57;;;;;;;;;;5011096;28;20592;-77
2022/11/20 06:07:06;;;;;;;16.00;10.17;;;;;;;;;;5009154;28;20218;-77
2022/11/20 06:09:32;;;;;;;16.10;9.47;;;;;;;;;;4992938;28;20722;-78
2022/11/20 06:11:57;;;;;;;16.87;9.40;;;;;;;;;;5009950;28;20175;-77
2022/11/20 06:14:22;;;;;;;19.10;9.60;;;;;;;;;;5010138;28;20171;-77
2022/11/20 06:16:47;;;;;;;14.73;9.57;;;;;;;;;;5011218;28;20207;-77
2022/11/20 06:19:13;;;;;;;17.43;9.63;;;;;;;;;;5011286;28;20174;-77
2022/11/20 06:21:38;;;;;;;20.07;10.50;;;;;;;;;;5010449;28;20179;-77
2022/11/20 06:24:03;;;;;;;18.07;9.60;;;;;;;;;;4993292;28;20183;-77
2022/11/20 06:26:30;;;;;;;13.10;9.03;;;;;;;;;;5007603;28;20211;-76
2022/11/20 06:28:57;;;;;;;16.30;8.40;;;;;;;;;;5007972;28;20257;-77
2022/11/20 06:31:23;;;;;;;20.77;10.33;;;;;;;;;;5010250;28;20179;-77
2022/11/20 06:33:49;;;;;;;19.87;10.70;;;;;;;;;;4991073;28;20672;-78
2022/11/20 06:36:15;;;;;;;18.50;9.43;;;;;;;;;;4992663;28;20195;-77
2022/11/20 06:38:41;;;;;;;15.70;9.43;;;;;;;;;;4993618;28;20591;-77
2022/11/20 06:41:11;;;;;;;17.53;10.10;;;;;;;;;;5009256;28;20329;-77
2022/11/20 06:43:36;;;;;;;22.67;11.23;;;;;;;;;;5010761;28;20692;-77
2022/11/20 06:46:02;;;;;;;17.93;10.83;;;;;;;;;;5009125;28;20219;-77
2022/11/20 06:48:27;;;;;;;15.50;10.27;;;;;;;;;;4990096;28;20187;-77
2022/11/20 06:50:53;;;;;;;19.27;10.70;;;;;;;;;;5010278;28;20182;-77
2022/11/20 06:53:18;;;;;;;17.83;10.30;;;;;;;;;;5006122;28;20182;-77
2022/11/20 06:55:44;;;;;;;20.77;12.90;;;;;;;;;;4992870;28;20171;-77
2022/11/20 06:58:09;;;;;;;22.03;11.97;;;;;;;;;;5009776;28;20530;-77
2022/11/20 07:00:35;;;;;;;19.33;10.90;;;;;;;;;;4977740;28;20183;-78
2022/11/20 07:03:06;;;;;;;17.07;11.30;;;;;;;;;;5011418;28;20220;-77
2022/11/20 07:05:32;;;;;;;20.80;10.37;;;;;;;;;;4996814;28;20648;-77
2022/11/20 07:07:57;;;;;;;19.93;10.87;;;;;;;;;;5014498;28;20258;-77
2022/11/20 07:10:22;;;;;;;19.03;10.40;;;;;;;;;;5012993;28;20175;-77
2022/11/20 07:12:52;;;;;;;18.80;10.30;;;;;;;;;;5013759;28;20210;-77
2022/11/20 07:15:21;;;;;;;18.30;10.47;;;;;;;;;;5013855;28;20179;-77
2022/11/20 07:17:46;;;;;;;19.53;10.97;;;;;;;;;;5014286;28;20199;-77
2022/11/20 07:20:12;;;;;;;16.57;10.13;;;;;;;;;;5014293;28;20552;-77
2022/11/20 07:22:37;;;;;;;24.20;13.03;;;;;;;;;;5011588;28;20254;-77
2022/11/20 07:25:03;;;;;;;22.13;11.30;;;;;;;;;;5017914;28;20183;-77
2022/11/20 07:27:28;;;;;;;19.20;12.43;;;;;;;;;;5015145;28;20203;-78
2022/11/20 07:29:54;;;;;;;18.27;10.93;;;;;;;;;;5013882;28;20175;-77
2022/11/20 07:32:19;;;;;;;25.17;11.67;;;;;;;;;;5013310;28;20182;-78
2022/11/20 07:34:44;;;;;;;21.13;11.73;;;;;;;;;;5014215;28;20170;-77
2022/11/20 07:37:09;;;;;;;21.13;11.50;;;;;;;;;;5013478;28;20681;-78
2022/11/20 07:39:34;;;;;;;23.43;12.77;;;;;;;;;;5014113;28;20183;-77
2022/11/20 07:42:00;;;;;;;20.33;10.70;;;;;;;;;;4993841;28;20191;-76
2022/11/20 07:44:25;;;;;;;18.43;11.97;;;;;;;;;;4994866;28;20549;-76
2022/11/20 07:46:50;;;;;;;24.63;12.83;;;;;;;;;;4994611;28;20257;-75
2022/11/20 07:49:15;;;;;;;22.37;13.33;;;;;;;;;;4993881;28;20186;-76
2022/11/20 07:51:40;;;;;;;20.03;12.70;;;;;;;;;;5012778;28;20199;-75
2022/11/20 07:54:05;;;;;;;20.13;11.97;;;;;;;;;;4999378;28;20175;-76
2022/11/20 07:56:31;;;;;;;25.83;13.93;;;;;;;;;;4996258;28;20204;-76
2022/11/20 07:58:56;;;;;;;27.60;14.23;;;;;;;;;;5013488;28;20183;-75
2022/11/20 08:01:21;;;;;;;24.87;13.37;;;;;;;;;;4991543;28;20475;-76
2022/11/20 08:03:46;;;;;;;22.87;13.03;;;;;;;;;;5008764;28;20265;-76
2022/11/20 08:06:11;;;;;;;23.00;13.37;;;;;;;;;;5011996;28;20206;-78
2022/11/20 08:08:39;;;;;;;26.77;13.90;;;;;;;;;;5009574;28;20197;-76
2022/11/20 08:16:31;;;;;;;21.87;13.40;;;;;;;;;;5009036;28;20214;-76
2022/11/20 08:18:57;;;;;;;24.03;14.23;;;;;;;;;;5013354;28;20209;-76
2022/11/20 08:21:22;;;;;;;25.07;14.17;;;;;;;;;;5004518;28;20183;-76
2022/11/20 08:23:47;;;;;;;22.07;14.00;;;;;;;;;;5011426;28;20178;-76
2022/11/20 08:26:12;;;;;;;23.63;13.40;;;;;;;;;;5012569;28;20658;-76
2022/11/20 08:28:37;;;;;;;21.73;13.50;;;;;;;;;;4990188;28;20171;-76
2022/11/20 08:31:03;;;;;;;24.10;14.77;;;;;;;;;;5011921;28;20213;-76
2022/11/20 08:33:28;;;;;;;20.17;12.83;;;;;;;;;;5012804;28;20181;-75
2022/11/20 08:35:57;;;;;;;25.83;14.97;;;;;;;;;;5012919;28;20198;-76
2022/11/20 08:38:22;;;;;;;24.47;13.50;;;;;;;;;;5009275;28;20183;-76
2022/11/20 08:41:23;;;;;;;22.27;14.60;;;;;;;;;;4998049;28;20187;-76
2022/11/20 08:43:33;;;;;;;26.10;13.53;;;;;;;;;;5020813;28;20210;-76
2022/11/20 08:45:58;;;;;;;19.70;12.93;;;;;;;;;;5011072;28;20238;-76
2022/11/20 08:48:23;;;;;;;23.67;13.60;;;;;;;;;;4995007;28;20181;-76
2022/11/20 08:50:48;;;;;;;22.50;13.10;;;;;;;;;;5011228;28;20667;-76
2022/11/20 08:53:14;;;;;;;22.30;13.53;;;;;;;;;;4991573;28;20179;-76
2022/11/20 08:55:39;;;;;;;21.40;13.93;;;;;;;;;;5012780;28;20257;-76
2022/11/20 08:58:04;;;;;;;22.63;13.50;;;;;;;;;;4992473;28;20684;-76
2022/11/20 09:00:30;;;;;;;22.80;13.50;;;;;;;;;;5003446;28;20181;-76
2022/11/20 09:02:55;;;;;;;22.20;13.43;;;;;;;;;;5001501;28;20240;-76
2022/11/20 09:05:20;;;;;;;20.53;13.77;;;;;;;;;;4990701;28;20193;-76
2022/11/20 09:07:45;;;;;;;21.73;12.83;;;;;;;;;;4991269;28;20187;-76
2022/11/20 09:10:10;;;;;;;21.70;12.63;;;;;;;;;;5006419;28;20233;-76
2022/11/20 09:12:35;;;;;;;21.90;12.27;;;;;;;;;;4992921;28;20620;-76
2022/11/20 09:15:01;;;;;;;23.87;13.50;;;;;;;;;;4993620;28;20175;-76
2022/11/20 09:17:26;;;;;;;20.47;13.67;;;;;;;;;;5005270;28;20210;-76
2022/11/20 09:19:52;;;;;;;18.73;12.77;;;;;;;;;;5004900;28;20334;-76
2022/11/20 09:22:17;;;;;;;20.87;13.67;;;;;;;;;;4991369;28;20659;-77
2022/11/20 09:24:43;;;;;;;22.03;13.03;;;;;;;;;;4994027;28;20179;-76
2022/11/20 09:27:08;;;;;;;20.57;11.87;;;;;;;;;;5012005;28;20214;-75
2022/11/20 09:29:33;;;;;;;19.43;12.03;;;;;;;;;;5008860;28;20181;-75
2022/11/20 09:31:58;;;;;;;21.03;13.13;;;;;;;;;;5008706;28;20269;-75
2022/11/20 09:34:23;;;;;;;20.87;12.07;;;;;;;;;;5011335;28;20273;-75
2022/11/20 09:36:49;;;;;;;17.57;11.50;;;;;;;;;;5009974;28;20198;-75
2022/11/20 09:39:14;;;;;;;19.97;11.43;;;;;;;;;;4994774;28;20182;-75
2022/11/20 09:41:58;;;;;;;19.67;12.50;;;;;;;;;;4992587;28;20262;-75
2022/11/20 09:44:26;;;;;;;18.43;12.60;;;;;;;;;;4991310;28;20191;-75
2022/11/20 09:46:51;;;;;;;18.80;11.67;;;;;;;;;;4991222;28;20217;-75
2022/11/20 09:49:35;;;;;;;18.57;11.87;;;;;;;;;;5008423;28;20278;-75
2022/11/20 09:52:18;;;;;;;19.63;12.70;;;;;;;;;;4992680;28;20187;-75
2022/11/20 09:54:43;;;;;;;19.73;12.87;;;;;;;;;;4987565;28;20214;-75
2022/11/20 09:57:13;;;;;;;22.00;12.33;;;;;;;;;;5013934;28;20214;-75
2022/11/20 09:59:43;;;;;;;18.93;11.50;;;;;;;;;;5004147;28;20190;-75
2022/11/20 10:02:28;;;;;;;18.07;12.87;;;;;;;;;;5006590;28;20221;-75
2022/11/20 10:04:56;;;;;;;18.73;11.60;;;;;;;;;;5010045;28;20199;-75
2022/11/20 10:07:29;;;;;;;18.57;11.60;;;;;;;;;;5009929;28;20233;-75
2022/11/20 10:09:55;;;;;;;17.27;11.70;;;;;;;;;;5008060;28;20230;-75
2022/11/20 10:12:23;;;;;;;19.33;12.53;;;;;;;;;;5007823;28;20191;-75
2022/11/20 10:14:49;;;;;;;20.97;13.73;;;;;;;;;;5009728;28;20245;-75
2022/11/20 10:17:19;;;;;;;18.00;12.53;;;;;;;;;;4989697;28;20202;-75
2022/11/20 10:19:48;;;;;;;20.83;13.57;;;;;;;;;;4990436;28;20167;-76
2022/11/20 10:22:33;;;;;;;22.83;13.73;;;;;;;;;;5005606;28;20229;-75
2022/11/20 10:25:01;;;;;;;21.67;13.13;;;;;;;;;;5005119;28;20579;-75
2022/11/20 10:27:45;;;;;;;18.97;11.50;;;;;;;;;;4990076;28;20210;-76
2022/11/20 10:30:15;;;;;;;20.63;13.70;;;;;;;;;;5008419;28;20171;-76
2022/11/20 10:32:46;;;;;;;21.83;14.33;;;;;;;;;;5006849;28;20175;-76
2022/11/20 10:35:11;;;;;;;19.97;13.13;;;;;;;;;;4994276;28;20183;-76
2022/11/20 10:37:37;;;;;;;20.63;13.63;;;;;;;;;;5018535;28;20233;-75
2022/11/20 10:40:18;;;;;;;21.20;14.03;;;;;;;;;;5010550;28;20198;-76
2022/11/20 10:42:46;;;;;;;23.13;14.43;;;;;;;;;;5007642;28;20174;-76
2022/11/20 10:45:16;;;;;;;22.30;13.60;;;;;;;;;;5010323;28;20203;-76
2022/11/20 10:47:41;;;;;;;21.27;13.33;;;;;;;;;;5013222;28;20195;-76
2022/11/20 10:50:11;;;;;;;24.37;13.97;;;;;;;;;;4996113;28;20183;-76
2022/11/20 10:52:48;;;;;;;23.97;14.63;;;;;;;;;;5011889;28;20175;-76
2022/11/20 10:55:49;;;;;;;22.47;14.17;;;;;;;;;;4990998;28;20664;-76
2022/11/20 10:58:22;;;;;;;24.97;13.33;;;;;;;;;;4912377;29;20178;-76
2022/11/20 11:00:47;;;;;;;23.10;14.00;;;;;;;;;;4999162;28;20214;-76
2022/11/20 11:03:21;;;;;;;22.63;15.10;;;;;;;;;;5010560;28;20201;-76
2022/11/20 11:06:05;;;;;;;24.27;14.60;;;;;;;;;;5009646;28;20195;-76
2022/11/20 11:08:34;;;;;;;22.30;14.80;;;;;;;;;;5010060;28;20189;-76
2022/11/20 11:11:01;;;;;;;26.03;15.00;;;;;;;;;;5008874;28;20191;-76
2022/11/20 11:13:28;;;;;;;28.70;17.33;;;;;;;;;;5013917;28;20173;-76
2022/11/20 11:15:53;;;;;;;24.73;14.57;;;;;;;;;;4993956;28;20206;-76
2022/11/20 11:18:25;;;;;;;27.13;15.90;;;;;;;;;;5010876;28;20270;-76
2022/11/20 11:20:51;;;;;;;27.87;16.53;;;;;;;;;;5007047;28;20179;-76
2022/11/20 11:23:35;;;;;;;28.50;14.73;;;;;;;;;;5012630;28;20253;-77
2022/11/20 11:26:01;;;;;;;29.70;15.07;;;;;;;;;;5004858;28;20218;-76
2022/11/20 11:28:27;;;;;;;25.87;14.77;;;;;;;;;;5012798;28;20259;-76
2022/11/20 11:30:53;;;;;;;28.13;15.00;;;;;;;;;;4995987;28;20269;-79
2022/11/20 11:33:19;;;;;;;27.17;16.80;;;;;;;;;;4994700;28;20279;-76
2022/11/20 11:35:45;;;;;;;28.17;16.53;;;;;;;;;;5013362;28;20245;-76
2022/11/20 11:38:13;;;;;;;29.27;16.00;;;;;;;;;;5014021;28;20194;-79
2022/11/20 11:40:39;;;;;;;31.53;17.10;;;;;;;;;;4996023;28;20660;-76
2022/11/20 11:45:04;;;;;;;33.73;18.23;;;;;;;;;;5010893;28;20187;-76
2022/11/20 11:45:54;;;;;;;26.80;15.50;;;;;;;;;;5010002;28;20214;-77
2022/11/20 11:48:20;;;;;;;29.17;16.23;;;;;;;;;;5012760;28;20198;-79
2022/11/20 11:50:49;;;;;;;29.30;17.20;;;;;;;;;;5012970;28;20171;-79
2022/11/20 11:53:16;;;;;;;34.47;17.17;;;;;;;;;;4990310;28;20175;-78
2022/11/20 11:55:45;;;;;;;31.47;17.20;;;;;;;;;;5012520;28;20246;-78
2022/11/20 11:58:19;;;;;;;32.43;17.17;;;;;;;;;;5013270;28;20495;-78
2022/11/20 12:01:00;;;;;;;25.07;15.20;;;;;;;;;;5012231;28;20170;-78
2022/11/20 12:03:34;;;;;;;27.47;15.07;;;;;;;;;;5010718;28;20182;-78
2022/11/20 12:06:19;;;;;;;30.10;17.10;;;;;;;;;;4994180;28;20237;-78
2022/11/20 12:08:44;;;;;;;26.80;16.03;;;;;;;;;;5003731;28;21374;-77
2022/11/20 12:11:10;;;;;;;28.47;16.10;;;;;;;;;;4994573;28;20175;-79
2022/11/20 12:13:54;;;;;;;27.73;15.37;;;;;;;;;;5009973;28;20533;-78
2022/11/20 12:16:20;;;;;;;29.17;17.60;;;;;;;;;;5014088;28;20237;-79
2022/11/20 12:18:48;;;;;;;25.63;14.97;;;;;;;;;;5012074;28;20691;-79
2022/11/20 12:21:20;;;;;;;30.03;15.77;;;;;;;;;;4995027;28;20278;-79
2022/11/20 12:23:52;;;;;;;30.90;16.17;;;;;;;;;;4987212;28;20171;-79
2022/11/20 12:26:35;;;;;;;30.13;15.83;;;;;;;;;;5011073;28;20207;-78
2022/11/20 12:29:06;;;;;;;27.73;16.60;;;;;;;;;;5010206;28;20281;-78
2022/11/20 12:31:48;;;;;;;27.57;16.37;;;;;;;;;;5010105;28;20171;-78
2022/11/20 12:34:21;;;;;;;31.60;16.63;;;;;;;;;;5009155;28;20453;-78
2022/11/20 12:37:06;;;;;;;30.93;17.80;;;;;;;;;;5012868;28;20198;-79
2022/11/20 12:39:34;;;;;;;29.53;16.50;;;;;;;;;;4994343;28;20183;-78
2022/11/20 12:45:11;;;;;;;33.63;16.90;;;;;;;;;;5010986;28;20194;-78
2022/11/20 12:47:48;;;;;;;35.13;16.50;;;;;;;;;;5008860;28;20212;-78
2022/11/20 12:50:32;;;;;;;33.83;17.67;;;;;;;;;;5012261;28;20177;-78
2022/11/20 12:53:17;;;;;;;32.60;17.07;;;;;;;;;;4988789;28;20182;-77
2022/11/20 12:55:42;;;;;;;33.67;18.23;;;;;;;;;;5006938;28;20186;-78
2022/11/20 12:58:13;;;;;;;39.83;20.97;;;;;;;;;;5012606;28;20191;-77
2022/11/20 13:00:43;;;;;;;33.63;17.87;;;;;;;;;;4991293;28;20186;-78
2022/11/20 13:03:08;;;;;;;31.00;17.03;;;;;;;;;;5012709;28;20679;-78
2022/11/20 13:05:36;;;;;;;34.37;18.60;;;;;;;;;;5007526;28;20289;-77
2022/11/20 13:08:02;;;;;;;37.17;19.20;;;;;;;;;;4991986;28;20175;-78
2022/11/20 13:10:46;;;;;;;35.40;18.90;;;;;;;;;;5004652;28;20183;-78
2022/11/20 13:13:11;;;;;;;37.93;19.20;;;;;;;;;;4987519;28;20211;-78
2022/11/20 13:15:53;;;;;;;33.60;17.43;;;;;;;;;;5016328;28;20191;-77
2022/11/20 13:18:19;;;;;;;37.57;16.87;;;;;;;;;;4994120;28;20191;-78
2022/11/20 13:20:45;;;;;;;35.60;18.23;;;;;;;;;;4994040;28;20258;-77
2022/11/20 13:23:10;;;;;;;36.10;18.83;;;;;;;;;;5012319;28;20189;-78
2022/11/20 13:25:36;;;;;;;34.37;17.03;;;;;;;;;;5013871;28;20227;-78
2022/11/20 13:28:22;;;;;;;40.07;20.13;;;;;;;;;;5012915;28;20237;-78
2022/11/20 13:30:51;;;;;;;41.10;20.40;;;;;;;;;;5000749;28;20179;-78
2022/11/20 13:33:31;;;;;;;35.57;19.23;;;;;;;;;;4995884;28;20183;-78
2022/11/20 13:36:00;;;;;;;37.00;19.00;;;;;;;;;;5011159;28;20206;-78
2022/11/20 13:38:26;;;;;;;34.10;17.97;;;;;;;;;;5014782;28;20175;-79
2022/11/20 13:40:54;;;;;;;37.00;19.37;;;;;;;;;;5012786;28;20563;-79
2022/11/20 13:43:19;;;;;;;34.63;20.23;;;;;;;;;;4993634;28;20505;-78
2022/11/20 13:45:54;;;;;;;33.60;19.53;;;;;;;;;;5011930;28;20214;-79
2022/11/20 13:48:21;;;;;;;35.57;19.70;;;;;;;;;;4990987;28;20265;-79
2022/11/20 13:50:54;;;;;;;33.87;19.30;;;;;;;;;;4992712;28;20185;-79
2022/11/20 13:53:29;;;;;;;42.23;20.07;;;;;;;;;;4990149;28;20175;-79
2022/11/20 13:55:57;;;;;;;37.57;19.60;;;;;;;;;;4995033;28;20206;-79
2022/11/20 13:58:49;;;;;;;40.40;19.97;;;;;;;;;;5009267;28;20186;-78
2022/11/20 14:01:16;;;;;;;32.43;18.73;;;;;;;;;;5006732;28;20202;-79
2022/11/20 14:03:42;;;;;;;35.07;20.73;;;;;;;;;;5011161;28;20269;-79
2022/11/20 14:06:13;;;;;;;37.03;19.23;;;;;;;;;;5013776;28;20206;-78
2022/11/20 14:08:46;;;;;;;38.20;21.20;;;;;;;;;;5012031;28;20229;-79
2022/11/20 14:11:24;;;;;;;38.03;21.43;;;;;;;;;;5011116;28;20171;-79
2022/11/20 14:13:52;;;;;;;44.27;23.43;;;;;;;;;;5013345;28;20734;-79
2022/11/20 14:16:19;;;;;;;46.73;24.77;;;;;;;;;;5009176;28;20209;-78
2022/11/20 14:18:44;;;;;;;39.20;23.30;;;;;;;;;;5013776;28;20254;-79
2022/11/20 14:21:10;;;;;;;46.57;24.33;;;;;;;;;;5014309;28;20270;-80
2022/11/20 14:23:35;;;;;;;52.03;26.10;;;;;;;;;;5013430;28;20233;-79
2022/11/20 14:26:00;;;;;;;47.90;23.87;;;;;;;;;;5010402;28;20562;-80
2022/11/20 14:28:27;;;;;;;48.27;23.83;;;;;;;;;;5013353;28;20676;-80
2022/11/20 14:30:53;;;;;;;43.17;22.90;;;;;;;;;;4996638;28;20261;-80
2022/11/20 14:33:19;;;;;;;41.97;21.97;;;;;;;;;;4985130;28;20274;-79
2022/11/20 14:35:49;;;;;;;36.17;21.70;;;;;;;;;;5012677;28;20194;-79
2022/11/20 14:38:16;;;;;;;38.30;21.70;;;;;;;;;;5002762;28;20186;-80